sensor_id;sensor_type;location;lat;lon;timestamp;pressure;altitude;pressure_sealevel;temperature;humidity
19831;BME280;10076;52.008;4.708;2023-10-19T00:01:40;99209.44;;;14.62;100.00
19831;BME280;10076;52.008;4.708;2023-10-19T00:04:06;99202.13;;;14.64;100.00
19831;BME280;10076;52.008;4.708;2023-10-19T00:06:32;99208.25;;;14.64;100.00
19831;BME280;10076;52.008;4.708;2023-10-19T00:08:58;99197.22;;;14.83;100.00
19831;BME280;10076;52.008;4.708;2023-10-19T00:11:24;99195.78;;;14.65;100.00
19831;BME280;10076;52.008;4.708;2023-10-19T00:13:51;99196.13;;;14.70;100.00
19831;BME280;10076;52.008;4.708;2023-10-19T00:16:19;99194.19;;;14.56;100.00
19831;BME280;10076;52.008;4.708;2023-10-19T00:18:48;99198.94;;;14.68;100.00
19831;BME280;10076;52.008;4.708;2023-10-19T00:21:17;99194.25;;;14.78;100.00
19831;BME280;10076;52.008;4.708;2023-10-19T00:23:47;99196.03;;;14.55;100.00
19831;BME280;10076;52.008;4.708;2023-10-19T00:26:13;99197.56;;;14.80;100.00
19831;BME280;10076;52.008;4.708;2023-10-19T00:28:45;99191.84;;;14.91;100.00
19831;BME280;10076;52.008;4.708;2023-10-19T00:31:13;99189.94;;;15.00;100.00
19831;BME280;10076;52.008;4.708;2023-10-19T00:33:39;99192.69;;;14.92;100.00
19831;BME280;10076;52.008;4.708;2023-10-19T00:36:05;99194.34;;;14.93;100.00
19831;BME280;10076;52.008;4.708;2023-10-19T00:38:35;99188.47;;;14.97;100.00
19831;BME280;10076;52.008;4.708;2023-10-19T00:41:01;99191.81;;;14.99;100.00
19831;BME280;10076;52.008;4.708;2023-10-19T00:43:33;99190.13;;;14.98;100.00
19831;BME280;10076;52.008;4.708;2023-10-19T00:46:02;99190.41;;;15.11;100.00
19831;BME280;10076;52.008;4.708;2023-10-19T00:48:29;99191.69;;;15.15;100.00
19831;BME280;10076;52.008;4.708;2023-10-19T00:50:55;99193.50;;;15.22;100.00
19831;BME280;10076;52.008;4.708;2023-10-19T00:53:37;99187.16;;;15.23;100.00
19831;BME280;10076;52.008;4.708;2023-10-19T00:56:04;99188.31;;;15.29;100.00
19831;BME280;10076;52.008;4.708;2023-10-19T00:58:34;99183.09;;;15.13;100.00
19831;BME280;10076;52.008;4.708;2023-10-19T01:01:05;99185.00;;;15.27;100.00
19831;BME280;10076;52.008;4.708;2023-10-19T01:03:34;99179.09;;;15.39;100.00
19831;BME280;10076;52.008;4.708;2023-10-19T01:06:04;99179.66;;;15.27;100.00
19831;BME280;10076;52.008;4.708;2023-10-19T01:08:38;99187.94;;;15.32;100.00
19831;BME280;10076;52.008;4.708;2023-10-19T01:11:08;99194.34;;;15.60;100.00
19831;BME280;10076;52.008;4.708;2023-10-19T01:13:39;99193.44;;;15.53;100.00
19831;BME280;10076;52.008;4.708;2023-10-19T01:16:14;99191.78;;;15.52;100.00
19831;BME280;10076;52.008;4.708;2023-10-19T01:18:45;99194.72;;;15.57;100.00
19831;BME280;10076;52.008;4.708;2023-10-19T01:21:11;99192.88;;;15.80;100.00
19831;BME280;10076;52.008;4.708;2023-10-19T01:23:37;99194.16;;;15.84;100.00
19831;BME280;10076;52.008;4.708;2023-10-19T01:26:04;99193.00;;;15.64;100.00
19831;BME280;10076;52.008;4.708;2023-10-19T01:28:35;99196.91;;;15.76;100.00
19831;BME280;10076;52.008;4.708;2023-10-19T01:31:23;99193.25;;;15.77;100.00
19831;BME280;10076;52.008;4.708;2023-10-19T01:34:03;99207.38;;;15.91;100.00
19831;BME280;10076;52.008;4.708;2023-10-19T01:36:32;99195.47;;;15.88;100.00
19831;BME280;10076;52.008;4.708;2023-10-19T01:39:07;99193.25;;;15.91;100.00
19831;BME280;10076;52.008;4.708;2023-10-19T01:41:36;99196.34;;;15.94;100.00
19831;BME280;10076;52.008;4.708;2023-10-19T01:44:03;99193.72;;;16.09;100.00
19831;BME280;10076;52.008;4.708;2023-10-19T01:46:38;99196.50;;;16.15;100.00
19831;BME280;10076;52.008;4.708;2023-10-19T01:49:05;99191.28;;;16.36;100.00
19831;BME280;10076;52.008;4.708;2023-10-19T01:51:34;99197.88;;;16.11;100.00
19831;BME280;10076;52.008;4.708;2023-10-19T01:54:04;99191.44;;;16.20;100.00
19831;BME280;10076;52.008;4.708;2023-10-19T01:56:30;99202.50;;;16.32;100.00
19831;BME280;10076;52.008;4.708;2023-10-19T01:58:56;99193.41;;;16.55;100.00
19831;BME280;10076;52.008;4.708;2023-10-19T02:01:22;99194.59;;;16.38;100.00
19831;BME280;10076;52.008;4.708;2023-10-19T02:03:51;99195.78;;;16.64;100.00
19831;BME280;10076;52.008;4.708;2023-10-19T02:06:22;99185.09;;;16.79;100.00
19831;BME280;10076;52.008;4.708;2023-10-19T02:08:57;99189.69;;;16.70;100.00
19831;BME280;10076;52.008;4.708;2023-10-19T02:11:27;99186.03;;;16.71;100.00
19831;BME280;10076;52.008;4.708;2023-10-19T02:13:55;99183.63;;;16.76;100.00
19831;BME280;10076;52.008;4.708;2023-10-19T02:16:26;99178.19;;;16.70;100.00
19831;BME280;10076;52.008;4.708;2023-10-19T02:18:54;99175.94;;;16.88;100.00
19831;BME280;10076;52.008;4.708;2023-10-19T02:21:20;99173.16;;;16.75;100.00
19831;BME280;10076;52.008;4.708;2023-10-19T02:23:52;99172.41;;;16.81;100.00
19831;BME280;10076;52.008;4.708;2023-10-19T02:26:18;99165.41;;;16.80;100.00
19831;BME280;10076;52.008;4.708;2023-10-19T02:28:48;99163.56;;;16.80;100.00
19831;BME280;10076;52.008;4.708;2023-10-19T02:31:17;99170.63;;;16.88;100.00
19831;BME280;10076;52.008;4.708;2023-10-19T02:33:51;99167.34;;;16.86;100.00
19831;BME280;10076;52.008;4.708;2023-10-19T02:36:26;99164.94;;;16.91;100.00
19831;BME280;10076;52.008;4.708;2023-10-19T02:39:02;99166.03;;;16.82;100.00
19831;BME280;10076;52.008;4.708;2023-10-19T02:41:33;99159.16;;;16.87;100.00
19831;BME280;10076;52.008;4.708;2023-10-19T02:44:01;99162.06;;;17.13;100.00
19831;BME280;10076;52.008;4.708;2023-10-19T02:46:29;99162.66;;;17.09;100.00
19831;BME280;10076;52.008;4.708;2023-10-19T02:49:00;99157.44;;;17.01;100.00
19831;BME280;10076;52.008;4.708;2023-10-19T02:51:25;99161.41;;;16.90;100.00
19831;BME280;10076;52.008;4.708;2023-10-19T02:53:51;99163.28;;;16.90;100.00
19831;BME280;10076;52.008;4.708;2023-10-19T02:56:16;99155.28;;;17.11;100.00
19831;BME280;10076;52.008;4.708;2023-10-19T02:58:43;99162.06;;;17.28;100.00
19831;BME280;10076;52.008;4.708;2023-10-19T03:01:15;99157.06;;;17.25;100.00
19831;BME280;10076;52.008;4.708;2023-10-19T03:03:43;99153.97;;;17.21;100.00
19831;BME280;10076;52.008;4.708;2023-10-19T03:06:09;99145.97;;;17.21;100.00
19831;BME280;10076;52.008;4.708;2023-10-19T03:08:35;99143.75;;;17.04;100.00
19831;BME280;10076;52.008;4.708;2023-10-19T03:11:01;99151.66;;;16.97;100.00
19831;BME280;10076;52.008;4.708;2023-10-19T03:13:29;99147.69;;;17.08;100.00
19831;BME280;10076;52.008;4.708;2023-10-19T03:15:55;99144.50;;;17.19;100.00
19831;BME280;10076;52.008;4.708;2023-10-19T03:18:20;99158.63;;;17.33;100.00
19831;BME280;10076;52.008;4.708;2023-10-19T03:20:45;99148.44;;;17.23;100.00
19831;BME280;10076;52.008;4.708;2023-10-19T03:23:10;99147.13;;;17.33;100.00
19831;BME280;10076;52.008;4.708;2023-10-19T03:25:36;99154.31;;;17.33;100.00
19831;BME280;10076;52.008;4.708;2023-10-19T03:28:19;99150.22;;;17.16;100.00
19831;BME280;10076;52.008;4.708;2023-10-19T03:30:45;99149.19;;;17.17;100.00
19831;BME280;10076;52.008;4.708;2023-10-19T03:33:12;99149.00;;;16.97;100.00
19831;BME280;10076;52.008;4.708;2023-10-19T03:35:38;99135.84;;;16.96;100.00
19831;BME280;10076;52.008;4.708;2023-10-19T03:38:06;99130.66;;;17.09;100.00
19831;BME280;10076;52.008;4.708;2023-10-19T03:40:39;99142.31;;;16.87;100.00
19831;BME280;10076;52.008;4.708;2023-10-19T03:43:04;99136.97;;;16.87;100.00
19831;BME280;10076;52.008;4.708;2023-10-19T03:45:39;99142.09;;;16.67;100.00
19831;BME280;10076;52.008;4.708;2023-10-19T03:48:09;99147.53;;;16.60;100.00
19831;BME280;10076;52.008;4.708;2023-10-19T03:50:35;99147.72;;;16.58;100.00
19831;BME280;10076;52.008;4.708;2023-10-19T03:53:02;99144.03;;;16.59;100.00
19831;BME280;10076;52.008;4.708;2023-10-19T03:55:29;99131.81;;;16.64;100.00
19831;BME280;10076;52.008;4.708;2023-10-19T03:57:55;99125.69;;;16.35;100.00
19831;BME280;10076;52.008;4.708;2023-10-19T04:00:21;99125.53;;;16.37;100.00
19831;BME280;10076;52.008;4.708;2023-10-19T04:02:51;99127.63;;;16.41;100.00
19831;BME280;10076;52.008;4.708;2023-10-19T04:05:20;99130.75;;;16.30;100.00
19831;BME280;10076;52.008;4.708;2023-10-19T04:07:47;99130.44;;;16.54;100.00
19831;BME280;10076;52.008;4.708;2023-10-19T04:10:15;99140.06;;;16.69;100.00
19831;BME280;10076;52.008;4.708;2023-10-19T04:13:04;99138.72;;;16.59;100.00
19831;BME280;10076;52.008;4.708;2023-10-19T04:15:30;99143.16;;;16.52;100.00
19831;BME280;10076;52.008;4.708;2023-10-19T04:17:59;99136.22;;;16.58;100.00
19831;BME280;10076;52.008;4.708;2023-10-19T04:20:25;99145.63;;;16.54;100.00
19831;BME280;10076;52.008;4.708;2023-10-19T04:22:50;99150.31;;;16.37;100.00
19831;BME280;10076;52.008;4.708;2023-10-19T04:25:17;99145.34;;;16.63;100.00
19831;BME280;10076;52.008;4.708;2023-10-19T04:27:50;99144.50;;;16.62;100.00
19831;BME280;10076;52.008;4.708;2023-10-19T04:30:16;99148.78;;;16.99;100.00
19831;BME280;10076;52.008;4.708;2023-10-19T04:32:45;99139.03;;;16.85;100.00
19831;BME280;10076;52.008;4.708;2023-10-19T04:35:11;99143.38;;;16.71;100.00
19831;BME280;10076;52.008;4.708;2023-10-19T04:37:49;99144.91;;;16.80;100.00
19831;BME280;10076;52.008;4.708;2023-10-19T04:40:16;99144.94;;;16.66;100.00
19831;BME280;10076;52.008;4.708;2023-10-19T04:42:41;99141.88;;;16.83;100.00
19831;BME280;10076;52.008;4.708;2023-10-19T04:45:06;99141.72;;;16.70;100.00
19831;BME280;10076;52.008;4.708;2023-10-19T04:47:33;99152.19;;;16.72;100.00
19831;BME280;10076;52.008;4.708;2023-10-19T04:50:07;99144.09;;;17.01;100.00
19831;BME280;10076;52.008;4.708;2023-10-19T04:52:32;99147.34;;;16.96;100.00
19831;BME280;10076;52.008;4.708;2023-10-19T04:54:58;99140.06;;;16.69;100.00
19831;BME280;10076;52.008;4.708;2023-10-19T04:57:23;99142.19;;;16.74;100.00
19831;BME280;10076;52.008;4.708;2023-10-19T04:59:49;99143.03;;;16.60;100.00
19831;BME280;10076;52.008;4.708;2023-10-19T05:02:15;99143.53;;;16.70;100.00
19831;BME280;10076;52.008;4.708;2023-10-19T05:04:40;99147.25;;;16.69;100.00
19831;BME280;10076;52.008;4.708;2023-10-19T05:07:06;99153.34;;;16.63;100.00
19831;BME280;10076;52.008;4.708;2023-10-19T05:09:32;99152.69;;;16.61;100.00
19831;BME280;10076;52.008;4.708;2023-10-19T05:11:57;99157.34;;;16.59;100.00
19831;BME280;10076;52.008;4.708;2023-10-19T05:14:23;99152.19;;;16.72;100.00
19831;BME280;10076;52.008;4.708;2023-10-19T05:16:49;99148.78;;;16.78;100.00
19831;BME280;10076;52.008;4.708;2023-10-19T05:19:15;99157.03;;;16.83;100.00
19831;BME280;10076;52.008;4.708;2023-10-19T05:21:40;99150.88;;;16.82;100.00
19831;BME280;10076;52.008;4.708;2023-10-19T05:24:06;99160.19;;;16.72;100.00
19831;BME280;10076;52.008;4.708;2023-10-19T05:26:33;99155.78;;;16.79;100.00
19831;BME280;10076;52.008;4.708;2023-10-19T05:28:58;99159.00;;;16.74;100.00
19831;BME280;10076;52.008;4.708;2023-10-19T05:31:24;99156.75;;;16.57;100.00
19831;BME280;10076;52.008;4.708;2023-10-19T05:33:49;99161.38;;;16.69;100.00
19831;BME280;10076;52.008;4.708;2023-10-19T05:36:15;99163.00;;;16.85;100.00
19831;BME280;10076;52.008;4.708;2023-10-19T05:38:40;99165.25;;;16.67;100.00
19831;BME280;10076;52.008;4.708;2023-10-19T05:41:06;99162.72;;;16.94;100.00
19831;BME280;10076;52.008;4.708;2023-10-19T05:43:33;99165.41;;;16.80;100.00
19831;BME280;10076;52.008;4.708;2023-10-19T05:45:59;99162.31;;;16.76;100.00
19831;BME280;10076;52.008;4.708;2023-10-19T05:48:25;99154.97;;;16.64;100.00
19831;BME280;10076;52.008;4.708;2023-10-19T05:50:50;99168.53;;;16.83;100.00
19831;BME280;10076;52.008;4.708;2023-10-19T05:53:16;99164.31;;;16.74;100.00
19831;BME280;10076;52.008;4.708;2023-10-19T05:55:44;99168.34;;;16.85;100.00
19831;BME280;10076;52.008;4.708;2023-10-19T05:58:09;99159.69;;;16.83;100.00
19831;BME280;10076;52.008;4.708;2023-10-19T06:00:35;99158.44;;;17.00;100.00
19831;BME280;10076;52.008;4.708;2023-10-19T06:03:00;99159.09;;;16.81;100.00
19831;BME280;10076;52.008;4.708;2023-10-19T06:05:26;99157.25;;;16.67;100.00
19831;BME280;10076;52.008;4.708;2023-10-19T06:07:51;99164.84;;;16.84;100.00
19831;BME280;10076;52.008;4.708;2023-10-19T06:10:20;99167.03;;;16.95;100.00
19831;BME280;10076;52.008;4.708;2023-10-19T06:12:48;99174.66;;;16.98;100.00
19831;BME280;10076;52.008;4.708;2023-10-19T06:15:16;99166.66;;;16.98;100.00
19831;BME280;10076;52.008;4.708;2023-10-19T06:17:43;99176.09;;;16.80;100.00
19831;BME280;10076;52.008;4.708;2023-10-19T06:20:10;99164.50;;;16.73;100.00
19831;BME280;10076;52.008;4.708;2023-10-19T06:22:47;99169.75;;;16.81;100.00
19831;BME280;10076;52.008;4.708;2023-10-19T06:25:19;99170.91;;;16.78;100.00
19831;BME280;10076;52.008;4.708;2023-10-19T06:27:46;99182.53;;;16.71;100.00
19831;BME280;10076;52.008;4.708;2023-10-19T06:30:12;99186.56;;;16.81;100.00
19831;BME280;10076;52.008;4.708;2023-10-19T06:32:42;99185.34;;;16.84;100.00
19831;BME280;10076;52.008;4.708;2023-10-19T06:35:09;99187.69;;;17.08;100.00
19831;BME280;10076;52.008;4.708;2023-10-19T06:37:36;99189.63;;;16.99;100.00
19831;BME280;10076;52.008;4.708;2023-10-19T06:40:01;99186.72;;;16.94;100.00
19831;BME280;10076;52.008;4.708;2023-10-19T06:42:27;99192.91;;;17.01;100.00
19831;BME280;10076;52.008;4.708;2023-10-19T06:44:52;99202.22;;;17.05;100.00
19831;BME280;10076;52.008;4.708;2023-10-19T06:47:20;99201.81;;;17.08;100.00
19831;BME280;10076;52.008;4.708;2023-10-19T06:49:47;99198.38;;;17.29;100.00
19831;BME280;10076;52.008;4.708;2023-10-19T06:52:13;99195.59;;;17.01;100.00
19831;BME280;10076;52.008;4.708;2023-10-19T06:54:38;99199.50;;;17.20;100.00
19831;BME280;10076;52.008;4.708;2023-10-19T06:57:04;99192.50;;;17.33;100.00
19831;BME280;10076;52.008;4.708;2023-10-19T06:59:29;99198.22;;;17.30;100.00
19831;BME280;10076;52.008;4.708;2023-10-19T07:01:54;99196.09;;;17.26;100.00
19831;BME280;10076;52.008;4.708;2023-10-19T07:04:20;99206.22;;;17.30;100.00
19831;BME280;10076;52.008;4.708;2023-10-19T07:06:45;99214.03;;;17.52;100.00
19831;BME280;10076;52.008;4.708;2023-10-19T07:09:12;99203.56;;;17.30;100.00
19831;BME280;10076;52.008;4.708;2023-10-19T07:11:38;99198.63;;;17.33;100.00
19831;BME280;10076;52.008;4.708;2023-10-19T07:14:03;99213.38;;;17.50;100.00
19831;BME280;10076;52.008;4.708;2023-10-19T07:16:32;99205.47;;;17.57;100.00
19831;BME280;10076;52.008;4.708;2023-10-19T07:18:57;99213.00;;;17.53;100.00
19831;BME280;10076;52.008;4.708;2023-10-19T07:21:24;99221.63;;;17.76;100.00
19831;BME280;10076;52.008;4.708;2023-10-19T07:23:50;99221.97;;;17.88;100.00
19831;BME280;10076;52.008;4.708;2023-10-19T07:26:17;99222.94;;;18.07;100.00
19831;BME280;10076;52.008;4.708;2023-10-19T07:28:44;99208.75;;;17.80;100.00
19831;BME280;10076;52.008;4.708;2023-10-19T07:31:10;99208.34;;;17.83;100.00
19831;BME280;10076;52.008;4.708;2023-10-19T07:33:40;99218.44;;;17.87;100.00
19831;BME280;10076;52.008;4.708;2023-10-19T07:36:13;99212.13;;;17.67;100.00
19831;BME280;10076;52.008;4.708;2023-10-19T07:38:43;99210.22;;;17.89;100.00
19831;BME280;10076;52.008;4.708;2023-10-19T07:41:10;99208.88;;;17.72;100.00
19831;BME280;10076;52.008;4.708;2023-10-19T07:43:36;99201.50;;;17.74;100.00
19831;BME280;10076;52.008;4.708;2023-10-19T07:46:01;99205.66;;;17.55;100.00
19831;BME280;10076;52.008;4.708;2023-10-19T07:48:27;99205.00;;;17.53;100.00
19831;BME280;10076;52.008;4.708;2023-10-19T07:50:52;99205.19;;;17.73;100.00
19831;BME280;10076;52.008;4.708;2023-10-19T07:53:18;99212.13;;;17.67;100.00
19831;BME280;10076;52.008;4.708;2023-10-19T07:55:43;99216.19;;;17.63;100.00
19831;BME280;10076;52.008;4.708;2023-10-19T07:58:09;99223.66;;;17.74;100.00
19831;BME280;10076;52.008;4.708;2023-10-19T08:00:35;99222.03;;;17.73;100.00
19831;BME280;10076;52.008;4.708;2023-10-19T08:03:04;99224.03;;;17.92;100.00
19831;BME280;10076;52.008;4.708;2023-10-19T08:05:31;99212.28;;;17.87;100.00
19831;BME280;10076;52.008;4.708;2023-10-19T08:07:56;99215.34;;;17.84;100.00
19831;BME280;10076;52.008;4.708;2023-10-19T08:10:24;99217.03;;;17.91;100.00
19831;BME280;10076;52.008;4.708;2023-10-19T08:12:50;99219.69;;;17.91;100.00
19831;BME280;10076;52.008;4.708;2023-10-19T08:15:19;99211.75;;;17.98;100.00
19831;BME280;10076;52.008;4.708;2023-10-19T08:17:47;99209.50;;;18.22;100.00
19831;BME280;10076;52.008;4.708;2023-10-19T08:20:14;99212.09;;;18.15;100.00
19831;BME280;10076;52.008;4.708;2023-10-19T08:22:49;99208.34;;;18.31;100.00
19831;BME280;10076;52.008;4.708;2023-10-19T08:25:15;99205.66;;;18.31;100.00
19831;BME280;10076;52.008;4.708;2023-10-19T08:27:41;99200.25;;;18.24;100.00
19831;BME280;10076;52.008;4.708;2023-10-19T08:30:10;99200.06;;;18.26;100.00
19831;BME280;10076;52.008;4.708;2023-10-19T08:32:37;99203.06;;;18.44;100.00
19831;BME280;10076;52.008;4.708;2023-10-19T08:35:04;99196.47;;;18.46;100.00
19831;BME280;10076;52.008;4.708;2023-10-19T08:37:30;99201.84;;;18.86;100.00
19831;BME280;10076;52.008;4.708;2023-10-19T08:39:56;99205.41;;;19.06;100.00
19831;BME280;10076;52.008;4.708;2023-10-19T08:42:23;99207.38;;;19.32;100.00
19831;BME280;10076;52.008;4.708;2023-10-19T08:44:48;99206.75;;;19.36;100.00
19831;BME280;10076;52.008;4.708;2023-10-19T08:47:14;99198.13;;;19.53;100.00
19831;BME280;10076;52.008;4.708;2023-10-19T08:49:40;99200.00;;;19.72;100.00
19831;BME280;10076;52.008;4.708;2023-10-19T08:52:07;99200.84;;;20.18;100.00
19831;BME280;10076;52.008;4.708;2023-10-19T08:54:32;99192.50;;;20.58;100.00
19831;BME280;10076;52.008;4.708;2023-10-19T08:56:59;99203.50;;;21.00;100.00
19831;BME280;10076;52.008;4.708;2023-10-19T08:59:25;99203.72;;;21.43;100.00
19831;BME280;10076;52.008;4.708;2023-10-19T09:01:50;99200.53;;;21.58;100.00
19831;BME280;10076;52.008;4.708;2023-10-19T09:04:15;99199.81;;;21.69;100.00
19831;BME280;10076;52.008;4.708;2023-10-19T09:06:41;99198.00;;;21.88;100.00
19831;BME280;10076;52.008;4.708;2023-10-19T09:09:13;99194.50;;;21.87;100.00
19831;BME280;10076;52.008;4.708;2023-10-19T09:11:50;99195.47;;;21.68;100.00
19831;BME280;10076;52.008;4.708;2023-10-19T09:14:31;99195.22;;;21.76;100.00
19831;BME280;10076;52.008;4.708;2023-10-19T09:16:58;99184.31;;;21.71;100.00
19831;BME280;10076;52.008;4.708;2023-10-19T09:19:36;99184.78;;;21.86;100.00
19831;BME280;10076;52.008;4.708;2023-10-19T09:22:02;99186.66;;;22.10;100.00
19831;BME280;10076;52.008;4.708;2023-10-19T09:24:36;99186.44;;;22.12;100.00
19831;BME280;10076;52.008;4.708;2023-10-19T09:27:03;99180.28;;;22.05;100.00
19831;BME280;10076;52.008;4.708;2023-10-19T09:29:29;99184.59;;;22.12;100.00
19831;BME280;10076;52.008;4.708;2023-10-19T09:31:58;99181.34;;;22.04;100.00
19831;BME280;10076;52.008;4.708;2023-10-19T09:34:27;99177.53;;;21.87;100.00
19831;BME280;10076;52.008;4.708;2023-10-19T09:36:58;99173.72;;;21.76;100.00
19831;BME280;10076;52.008;4.708;2023-10-19T09:39:26;99167.31;;;21.77;100.00
19831;BME280;10076;52.008;4.708;2023-10-19T09:41:56;99158.03;;;21.98;100.00
19831;BME280;10076;52.008;4.708;2023-10-19T09:44:24;99162.41;;;21.92;100.00
19831;BME280;10076;52.008;4.708;2023-10-19T09:46:51;99168.19;;;21.96;100.00
19831;BME280;10076;52.008;4.708;2023-10-19T09:49:19;99154.03;;;21.82;100.00
19831;BME280;10076;52.008;4.708;2023-10-19T09:51:46;99159.19;;;21.84;100.00
19831;BME280;10076;52.008;4.708;2023-10-19T09:54:22;99155.84;;;21.88;100.00
19831;BME280;10076;52.008;4.708;2023-10-19T09:56:55;99166.56;;;22.13;100.00
19831;BME280;10076;52.008;4.708;2023-10-19T09:59:35;99166.31;;;22.92;100.00
19831;BME280;10076;52.008;4.708;2023-10-19T10:02:12;99173.97;;;23.24;100.00
19831;BME280;10076;52.008;4.708;2023-10-19T10:04:39;99161.97;;;23.09;100.00
19831;BME280;10076;52.008;4.708;2023-10-19T10:07:07;99156.16;;;22.76;100.00
19831;BME280;10076;52.008;4.708;2023-10-19T10:09:39;99156.59;;;22.73;100.00
19831;BME280;10076;52.008;4.708;2023-10-19T10:12:22;99168.50;;;22.66;100.00
19831;BME280;10076;52.008;4.708;2023-10-19T10:15:02;99150.25;;;22.86;100.00
19831;BME280;10076;52.008;4.708;2023-10-19T10:17:38;99146.28;;;22.88;100.00
19831;BME280;10076;52.008;4.708;2023-10-19T10:23:17;99155.88;;;23.02;100.00
19831;BME280;10076;52.008;4.708;2023-10-19T10:25:46;99147.50;;;23.62;100.00
19831;BME280;10076;52.008;4.708;2023-10-19T10:28:15;99133.47;;;24.51;100.00
19831;BME280;10076;52.008;4.708;2023-10-19T10:33:59;99152.19;;;25.64;100.00
19831;BME280;10076;52.008;4.708;2023-10-19T10:36:24;99148.56;;;26.24;100.00
19831;BME280;10076;52.008;4.708;2023-10-19T10:38:51;99150.69;;;26.55;100.00
19831;BME280;10076;52.008;4.708;2023-10-19T10:41:23;99150.44;;;26.56;100.00
19831;BME280;10076;52.008;4.708;2023-10-19T10:43:56;99149.78;;;26.50;100.00
19831;BME280;10076;52.008;4.708;2023-10-19T10:46:23;99156.44;;;26.26;100.00
19831;BME280;10076;52.008;4.708;2023-10-19T10:48:49;99154.66;;;26.31;100.00
19831;BME280;10076;52.008;4.708;2023-10-19T10:51:19;99148.09;;;26.27;100.00
19831;BME280;10076;52.008;4.708;2023-10-19T10:53:49;99139.59;;;25.86;100.00
19831;BME280;10076;52.008;4.708;2023-10-19T10:56:15;99143.75;;;25.16;100.00
19831;BME280;10076;52.008;4.708;2023-10-19T10:58:41;99141.75;;;24.73;100.00
19831;BME280;10076;52.008;4.708;2023-10-19T11:01:06;99143.91;;;24.48;100.00
19831;BME280;10076;52.008;4.708;2023-10-19T11:03:32;99137.94;;;24.57;100.00
19831;BME280;10076;52.008;4.708;2023-10-19T11:06:05;99147.63;;;24.81;100.00
19831;BME280;10076;52.008;4.708;2023-10-19T11:08:33;99146.81;;;24.69;100.00
19831;BME280;10076;52.008;4.708;2023-10-19T11:11:05;99135.47;;;24.44;100.00
19831;BME280;10076;52.008;4.708;2023-10-19T11:13:31;99137.41;;;24.83;100.00
19831;BME280;10076;52.008;4.708;2023-10-19T11:15:58;99150.78;;;25.17;100.00
19831;BME280;10076;52.008;4.708;2023-10-19T11:21:03;99143.06;;;25.54;100.00
19831;BME280;10076;52.008;4.708;2023-10-19T11:23:44;99140.09;;;25.83;100.00
19831;BME280;10076;52.008;4.708;2023-10-19T11:26:11;99137.69;;;26.78;100.00
19831;BME280;10076;52.008;4.708;2023-10-19T11:28:37;99129.47;;;27.95;100.00
19831;BME280;10076;52.008;4.708;2023-10-19T11:31:29;99123.59;;;29.20;100.00
19831;BME280;10076;52.008;4.708;2023-10-19T11:34:03;99133.78;;;30.04;100.00
19831;BME280;10076;52.008;4.708;2023-10-19T11:36:28;99116.81;;;29.33;100.00
19831;BME280;10076;52.008;4.708;2023-10-19T11:38:54;99113.31;;;28.56;100.00
19831;BME280;10076;52.008;4.708;2023-10-19T11:41:19;99109.22;;;27.76;100.00
19831;BME280;10076;52.008;4.708;2023-10-19T11:43:46;99098.44;;;26.81;100.00
19831;BME280;10076;52.008;4.708;2023-10-19T11:46:12;99089.91;;;26.46;100.00
19831;BME280;10076;52.008;4.708;2023-10-19T11:48:38;99109.59;;;25.71;100.00
19831;BME280;10076;52.008;4.708;2023-10-19T11:51:05;99094.16;;;25.39;100.00
19831;BME280;10076;52.008;4.708;2023-10-19T11:53:32;99083.41;;;25.11;100.00
19831;BME280;10076;52.008;4.708;2023-10-19T11:55:59;99081.03;;;24.47;100.00
19831;BME280;10076;52.008;4.708;2023-10-19T11:58:26;99080.47;;;24.23;100.00
19831;BME280;10076;52.008;4.708;2023-10-19T12:00:51;99083.38;;;24.33;100.00
19831;BME280;10076;52.008;4.708;2023-10-19T12:03:17;99085.44;;;24.03;100.00
19831;BME280;10076;52.008;4.708;2023-10-19T12:05:43;99082.47;;;23.70;100.00
19831;BME280;10076;52.008;4.708;2023-10-19T12:08:09;99081.97;;;23.62;100.00
19831;BME280;10076;52.008;4.708;2023-10-19T12:10:34;99082.94;;;23.03;100.00
19831;BME280;10076;52.008;4.708;2023-10-19T12:13:04;99079.16;;;22.75;100.00
19831;BME280;10076;52.008;4.708;2023-10-19T12:15:31;99075.84;;;22.44;100.00
19831;BME280;10076;52.008;4.708;2023-10-19T12:17:56;99077.03;;;22.12;100.00
19831;BME280;10076;52.008;4.708;2023-10-19T12:20:22;99077.56;;;22.03;100.00
19831;BME280;10076;52.008;4.708;2023-10-19T12:22:48;99068.66;;;22.20;100.00
19831;BME280;10076;52.008;4.708;2023-10-19T12:25:14;99060.00;;;22.00;100.00
19831;BME280;10076;52.008;4.708;2023-10-19T12:27:40;99061.78;;;21.88;100.00
19831;BME280;10076;52.008;4.708;2023-10-19T12:30:06;99059.06;;;21.70;100.00
19831;BME280;10076;52.008;4.708;2023-10-19T12:32:42;99055.84;;;21.62;100.00
19831;BME280;10076;52.008;4.708;2023-10-19T12:35:08;99061.28;;;21.73;100.00
19831;BME280;10076;52.008;4.708;2023-10-19T12:37:37;99054.03;;;21.50;100.00
19831;BME280;10076;52.008;4.708;2023-10-19T12:40:12;99047.94;;;21.43;100.00
19831;BME280;10076;52.008;4.708;2023-10-19T12:42:54;99043.47;;;21.30;100.00
19831;BME280;10076;52.008;4.708;2023-10-19T12:45:24;99060.53;;;21.66;100.00
19831;BME280;10076;52.008;4.708;2023-10-19T12:47:49;99063.13;;;21.55;100.00
19831;BME280;10076;52.008;4.708;2023-10-19T12:50:18;99057.69;;;21.61;100.00
19831;BME280;10076;52.008;4.708;2023-10-19T12:52:44;99057.91;;;21.36;100.00
19831;BME280;10076;52.008;4.708;2023-10-19T12:55:10;99051.94;;;21.03;100.00
19831;BME280;10076;52.008;4.708;2023-10-19T12:57:36;99049.56;;;20.88;100.00
19831;BME280;10076;52.008;4.708;2023-10-19T13:00:01;99053.75;;;21.09;100.00
19831;BME280;10076;52.008;4.708;2023-10-19T13:02:46;99051.69;;;21.11;100.00
19831;BME280;10076;52.008;4.708;2023-10-19T13:05:12;99041.72;;;20.93;100.00